Time;durP1;ratioP1;P1;durP2;ratioP2;P2;SDS_P1;SDS_P2;PMS_P1;PMS_P2;Temp;Humidity;BMP_temperature;BMP_pressure;BME280_temperature;BME280_humidity;BME280_pressure;Samples;Min_cycle;Max_cycle;Signal;HPM_P1;HPM_P2
2021/06/21 00:00:11;;;;;;;8.98;1.63;;;16.80;99.90;;;16.14;89.06;96600.72;5046111;28;20047;-63
2021/06/21 00:02:38;;;;;;;14.52;1.65;;;16.80;99.90;;;15.97;89.54;96610.78;5049794;28;20496;-64
2021/06/21 00:05:07;;;;;;;7.28;1.33;;;16.80;99.90;;;16.00;89.03;96623.59;5054418;28;20593;-64
2021/06/21 00:07:35;;;;;;;12.23;1.48;;;16.80;99.90;;;16.04;89.34;96617.19;5065027;28;20063;-64
2021/06/21 00:10:07;;;;;;;8.65;1.15;;;16.80;99.90;;;16.02;88.93;96616.47;5060068;28;20098;-64
2021/06/21 00:12:37;;;;;;;6.10;1.40;;;16.70;99.90;;;16.04;88.68;96616.34;5035532;28;20106;-64
2021/06/21 00:15:06;;;;;;;7.97;1.23;;;16.80;99.90;;;16.06;87.93;96630.97;5070384;28;20072;-63
2021/06/21 00:17:33;;;;;;;10.35;1.08;;;16.70;99.90;;;15.93;88.77;96617.19;5059711;28;20354;-64
2021/06/21 00:20:00;;;;;;;9.75;1.40;;;16.70;99.90;;;16.15;87.80;96613.72;5067603;28;20448;-63
2021/06/21 00:22:27;;;;;;;9.05;1.33;;;16.80;99.90;;;16.16;87.48;96604.88;5063327;28;20044;-62
2021/06/21 00:24:54;;;;;;;11.43;1.48;;;16.80;99.90;;;16.01;88.16;96608.72;5065492;28;20041;-64
2021/06/21 00:27:21;;;;;;;8.40;1.10;;;16.70;99.90;;;15.91;88.29;96599.97;5066011;28;20772;-65
2021/06/21 00:29:48;;;;;;;7.38;0.90;;;16.60;99.90;;;15.97;87.80;96605.53;5043461;28;20044;-64
2021/06/21 00:32:14;;;;;;;7.93;1.15;;;16.60;99.90;;;15.89;88.01;96600.06;5069458;28;20094;-64
2021/06/21 00:34:42;;;;;;;7.53;1.70;;;16.50;99.90;;;15.87;88.02;96613.31;5033562;28;20044;-64
2021/06/21 00:37:09;;;;;;;7.65;1.40;;;16.60;99.90;;;15.91;88.18;96603.41;5058937;28;20066;-63
2021/06/21 00:39:36;;;;;;;8.57;1.40;;;16.50;99.90;;;15.84;88.33;96613.53;5070033;28;20542;-64
2021/06/21 00:42:04;;;;;;;4.22;0.88;;;16.50;99.90;;;15.83;88.14;96611.06;5070430;28;20040;-64
2021/06/21 00:44:31;;;;;;;8.27;1.13;;;16.50;99.90;;;15.82;88.12;96599.72;5069639;28;20515;-64
2021/06/21 00:46:58;;;;;;;8.57;1.10;;;16.50;99.90;;;15.93;87.56;96600.66;5069510;28;20049;-64
2021/06/21 00:49:25;;;;;;;11.80;1.20;;;16.50;99.90;;;15.79;88.11;96604.38;5069052;28;20424;-64
2021/06/21 00:51:53;;;;;;;9.20;1.13;;;16.40;99.90;;;15.91;87.51;96605.19;5039422;28;20186;-64
2021/06/21 00:54:20;;;;;;;10.10;1.17;;;16.40;99.90;;;15.91;86.96;96607.81;5050136;28;20095;-64
2021/06/21 00:56:48;;;;;;;10.75;1.33;;;16.50;99.90;;;15.88;87.46;96593.19;5045619;28;20045;-64
2021/06/21 00:59:16;;;;;;;11.00;1.77;;;16.40;99.90;;;15.81;87.24;96594.63;5050239;28;20390;-64
2021/06/21 01:01:44;;;;;;;9.45;1.10;;;;;;;15.71;87.78;96596.31;5036000;28;20078;-64
2021/06/21 01:04:11;;;;;;;8.68;1.25;;;16.40;99.90;;;15.72;87.92;96595.38;5068748;28;20044;-64
2021/06/21 01:06:38;;;;;;;5.50;1.00;;;16.30;99.90;;;15.74;88.03;96609.16;5055572;28;20094;-64
2021/06/21 01:09:05;;;;;;;12.88;1.58;;;16.40;99.90;;;15.65;88.48;96606.28;5056881;28;20448;-64
2021/06/21 01:11:54;;;;;;;10.75;1.45;;;16.30;99.90;;;15.63;88.38;96612.56;5054060;28;20048;-65
2021/06/21 01:14:33;;;;;;;10.63;1.42;;;16.30;99.90;;;15.68;88.16;96602.59;5042577;28;20450;-62
2021/06/21 01:17:21;;;;;;;12.55;1.40;;;16.30;99.90;;;15.66;88.01;96612.31;5036276;28;20095;-62
2021/06/21 01:20:29;;;;;;;6.35;0.90;;;16.30;99.90;;;15.71;88.26;96596.31;5046312;28;20440;-64
2021/06/21 01:23:47;;;;;;;12.57;1.40;;;16.30;99.90;;;15.57;88.44;96611.25;5052529;28;20405;-64
2021/06/21 01:26:45;;;;;;;9.63;1.20;;;16.30;99.90;;;15.71;88.08;96606.75;5035443;28;20556;-63
2021/06/21 01:30:15;;;;;;;14.48;1.20;;;16.30;99.90;;;15.71;88.29;96599.75;5043463;28;20067;-64
2021/06/21 01:33:05;;;;;;;6.13;1.10;;;16.30;99.90;;;15.70;88.06;96598.06;5051112;28;20103;-63
2021/06/21 01:36:00;;;;;;;8.45;0.90;;;16.30;99.90;;;15.47;89.15;96626.03;5036745;28;20045;-64
2021/06/21 01:38:58;;;;;;;7.30;1.25;;;16.30;99.90;;;15.59;89.06;96603.31;5051030;28;20138;-64
2021/06/21 01:41:47;;;;;;;9.13;1.33;;;16.30;99.90;;;15.60;89.00;96618.88;5042960;28;20095;-64
2021/06/21 01:44:18;;;;;;;5.03;0.80;;;16.30;99.90;;;15.63;88.48;96621.25;5052112;28;20040;-64
2021/06/21 01:46:49;;;;;;;11.48;2.65;;;16.30;99.90;;;15.73;88.38;96612.72;5017152;28;20094;-64
2021/06/21 01:49:29;;;;;;;8.60;1.35;;;16.30;99.90;;;15.61;88.93;96610.06;5034703;28;20041;-64
2021/06/21 01:52:00;;;;;;;12.63;1.35;;;16.20;99.90;;;15.55;89.43;96618.38;5018952;28;20106;-64
2021/06/21 01:54:30;;;;;;;10.05;1.50;;;16.30;99.90;;;15.64;89.57;96616.84;5052783;28;20045;-64
2021/06/21 01:56:58;;;;;;;11.77;1.60;;;16.30;99.90;;;15.65;89.21;96634.22;5032440;28;20045;-63
2021/06/21 01:59:27;;;;;;;5.00;0.98;;;16.30;99.90;;;15.55;89.36;96636.69;5047285;28;20045;-64
2021/06/21 02:01:58;;;;;;;4.68;0.68;;;16.30;99.90;;;15.55;89.18;96623.63;5032920;28;20547;-64
2021/06/21 02:04:31;;;;;;;9.95;1.60;;;16.30;99.90;;;15.58;89.85;96630.44;5053028;28;20555;-64
2021/06/21 02:07:00;;;;;;;5.57;0.90;;;16.30;99.90;;;15.56;90.20;96624.47;5049816;28;20045;-64
2021/06/21 02:09:28;;;;;;;8.07;1.52;;;16.40;99.90;;;15.54;90.12;96624.59;5053038;28;20045;-65
2021/06/21 02:11:57;;;;;;;8.77;1.58;;;16.30;99.90;;;15.39;90.69;96644.06;5051268;28;20474;-64
2021/06/21 02:14:29;;;;;;;10.45;1.20;;;16.30;99.90;;;15.50;90.05;96631.00;5052812;28;20099;-64
2021/06/21 02:16:59;;;;;;;8.32;1.23;;;16.20;99.90;;;15.33;91.13;96614.00;5033931;28;20072;-64
2021/06/21 02:19:30;;;;;;;10.32;1.58;;;16.20;99.90;;;15.34;90.99;96626.13;5051361;28;20494;-64
2021/06/21 02:21:59;;;;;;;11.90;1.48;;;16.10;99.90;;;15.37;91.12;96611.97;5051618;28;20056;-64
2021/06/21 02:24:27;;;;;;;9.77;1.30;;;16.10;99.90;;;15.41;91.02;96614.22;5052277;28;20037;-63
2021/06/21 02:26:54;;;;;;;11.07;1.20;;;16.00;99.90;;;15.27;91.39;96607.47;5052177;28;20502;-64
2021/06/21 02:29:26;;;;;;;11.60;1.75;;;16.00;99.90;;;15.38;91.18;96609.25;5033330;28;20045;-64
2021/06/21 02:31:53;;;;;;;12.65;1.90;;;16.00;99.90;;;15.27;91.82;96620.53;5051278;28;20037;-64
2021/06/21 02:34:21;;;;;;;7.03;1.10;;;16.00;99.90;;;15.25;92.10;96617.19;5034411;28;20076;-64
2021/06/21 02:36:48;;;;;;;12.95;1.50;;;16.10;99.90;;;15.25;92.30;96605.91;5041174;28;20041;-61
2021/06/21 02:39:18;;;;;;;6.85;1.42;;;16.10;99.90;;;15.22;92.31;96624.47;5052589;28;20049;-64
2021/06/21 02:41:45;;;;;;;7.15;1.00;;;16.10;99.90;;;15.47;91.28;96618.19;5047282;28;20387;-62
2021/06/21 02:44:12;;;;;;;6.43;1.25;;;16.10;99.90;;;15.52;91.13;96615.19;5052491;28;20095;-65
2021/06/21 02:46:39;;;;;;;10.00;1.58;;;16.10;99.90;;;15.41;91.44;96619.47;5048551;28;20562;-64
2021/06/21 02:49:07;;;;;;;6.38;1.55;;;16.20;99.90;;;15.50;91.17;96617.94;5051567;28;20045;-63
2021/06/21 02:52:02;;;;;;;14.23;1.52;;;16.20;99.90;;;15.34;92.17;96639.19;5033742;28;20124;-63
2021/06/21 02:55:08;;;;;;;11.15;1.25;;;16.20;99.90;;;15.39;92.77;96625.75;5033444;28;20439;-64
2021/06/21 02:58:07;;;;;;;14.45;1.70;;;16.20;99.90;;;15.16;93.76;96641.44;5044380;28;20048;-63
2021/06/21 03:01:00;;;;;;;15.18;2.53;;;16.20;99.90;;;15.36;93.17;96634.69;5048802;28;20044;-63
2021/06/21 03:03:51;;;;;;;10.05;1.50;;;16.20;99.90;;;15.26;93.50;96637.19;5034938;28;20049;-63
2021/06/21 03:06:42;;;;;;;8.48;1.50;;;16.20;99.90;;;15.31;93.83;96613.28;5035309;28;20574;-63
2021/06/21 03:09:31;;;;;;;11.27;1.13;;;16.10;99.90;;;15.24;93.65;96618.16;5037079;28;20249;-64
2021/06/21 03:12:26;;;;;;;10.27;1.92;;;16.20;99.90;;;15.23;93.73;96636.56;5033689;28;20037;-63
2021/06/21 03:14:58;;;;;;;6.90;1.60;;;16.10;99.90;;;15.19;93.73;96632.53;5034439;28;20071;-64
2021/06/21 03:17:26;;;;;;;12.50;1.52;;;16.10;99.90;;;15.19;94.03;96629.91;5016182;28;20041;-64
2021/06/21 03:19:54;;;;;;;10.60;2.33;;;16.10;99.90;;;15.14;94.52;96611.97;5052021;28;20045;-63
2021/06/21 03:22:25;;;;;;;8.38;1.20;;;16.10;99.90;;;15.18;94.17;96639.53;5032793;28;20033;-63
2021/06/21 03:24:56;;;;;;;12.60;2.13;;;16.10;99.90;;;15.21;94.29;96628.88;5033592;28;20037;-64
2021/06/21 03:27:32;;;;;;;15.13;2.10;;;16.10;99.90;;;15.27;93.78;96615.31;5047527;28;20055;-63
2021/06/21 03:30:02;;;;;;;11.18;1.90;;;16.10;99.90;;;15.29;93.93;96603.91;5051062;28;20104;-63
2021/06/21 03:32:33;;;;;;;9.90;1.63;;;16.10;99.90;;;15.22;94.24;96635.75;5049817;28;20091;-63
2021/06/21 03:35:05;;;;;;;10.15;2.10;;;16.10;99.90;;;15.19;94.32;96643.84;5017878;28;20405;-64
2021/06/21 03:37:32;;;;;;;7.77;1.53;;;16.20;99.90;;;15.19;94.38;96619.44;5050010;28;20095;-64
2021/06/21 03:39:59;;;;;;;7.97;1.50;;;16.20;99.90;;;15.26;93.98;96641.59;5051404;28;20103;-64
2021/06/21 03:42:26;;;;;;;8.73;1.80;;;16.10;99.90;;;15.26;93.94;96638.97;5032566;28;20099;-63
2021/06/21 03:44:53;;;;;;;6.82;1.50;;;16.10;99.90;;;15.27;93.66;96644.06;5051623;28;20392;-63
2021/06/21 03:47:20;;;;;;;13.13;1.77;;;16.20;99.90;;;15.33;93.96;96644.56;5048828;28;20435;-63
2021/06/21 03:49:49;;;;;;;13.90;1.70;;;16.20;99.90;;;15.42;93.15;96636.84;5051686;28;20551;-63
2021/06/21 03:52:16;;;;;;;9.35;1.85;;;16.20;99.90;;;15.32;93.63;96656.78;5050588;28;20079;-64
2021/06/21 03:54:44;;;;;;;7.38;1.98;;;16.20;99.90;;;15.41;93.48;96663.91;5033570;28;20051;-64
2021/06/21 03:57:11;;;;;;;10.48;1.90;;;16.20;99.90;;;15.33;93.88;96655.03;5048045;28;20045;-63
2021/06/21 03:59:38;;;;;;;9.00;2.08;;;16.20;99.90;;;15.46;93.47;96650.50;5049279;28;20574;-64
2021/06/21 04:02:05;;;;;;;8.80;2.00;;;16.20;99.90;;;15.33;93.75;96665.47;5048621;28;20099;-63
2021/06/21 04:04:32;;;;;;;11.73;1.92;;;16.20;99.90;;;15.25;93.72;96679.13;5051317;28;20102;-63
2021/06/21 04:06:59;;;;;;;12.45;1.48;;;16.30;99.90;;;15.36;93.22;96670.47;5048027;28;20083;-64
2021/06/21 04:09:26;;;;;;;8.68;1.90;;;16.30;99.90;;;15.41;92.58;96639.56;5026184;28;20497;-64
2021/06/21 04:11:53;;;;;;;10.38;2.22;;;16.30;99.90;;;15.29;93.70;96637.91;5049703;28;20069;-62
2021/06/21 04:14:20;;;;;;;9.27;2.05;;;16.30;99.90;;;15.54;92.23;96676.06;5049983;28;20049;-64
2021/06/21 04:16:47;;;;;;;11.93;1.83;;;16.30;99.90;;;15.58;92.11;96664.44;5032143;28;20706;-63
2021/06/21 04:19:15;;;;;;;10.80;2.05;;;16.30;99.90;;;15.40;92.47;96670.13;5050852;28;20044;-63
2021/06/21 04:21:41;;;;;;;13.63;2.20;;;16.40;99.90;;;15.57;92.02;96654.91;5050117;28;20106;-64
2021/06/21 04:24:09;;;;;;;8.82;1.70;;;16.30;99.90;;;15.43;92.28;96669.03;5032237;28;20102;-63
2021/06/21 04:26:36;;;;;;;11.07;2.08;;;16.40;99.90;;;15.43;92.90;96664.63;5047741;28;20501;-63
2021/06/21 04:29:05;;;;;;;11.10;1.63;;;16.40;99.90;;;15.56;92.21;96648.00;5040768;28;20455;-63
2021/06/21 04:31:48;;;;;;;7.93;1.52;;;16.40;99.90;;;15.38;93.27;96686.88;5030183;28;20057;-63
2021/06/21 04:34:16;;;;;;;10.55;2.05;;;16.40;99.90;;;15.46;92.75;96640.03;5037190;28;20036;-63
2021/06/21 04:36:43;;;;;;;14.93;2.33;;;16.40;99.90;;;15.42;92.91;96652.53;5049681;28;20040;-64
2021/06/21 04:39:10;;;;;;;13.52;2.20;;;16.40;99.90;;;15.47;93.20;96644.31;5050244;28;20067;-64
2021/06/21 04:41:37;;;;;;;17.05;2.53;;;16.40;99.90;;;15.38;93.33;96647.66;5049590;28;20079;-63
2021/06/21 04:44:04;;;;;;;6.85;1.48;;;16.50;99.90;;;15.38;93.06;96645.03;5032338;28;20049;-64
2021/06/21 04:46:33;;;;;;;8.25;1.58;;;16.40;99.90;;;15.60;92.15;96641.56;5048635;28;20390;-64
2021/06/21 04:49:01;;;;;;;11.20;2.10;;;16.40;99.90;;;15.62;91.51;96639.66;5050680;28;20048;-64
2021/06/21 04:51:32;;;;;;;9.85;1.45;;;16.40;99.90;;;15.71;90.99;96653.84;5050102;28;20103;-64
2021/06/21 04:53:59;;;;;;;9.60;1.75;;;16.50;99.90;;;15.65;91.27;96657.75;5052057;28;20053;-64
2021/06/21 04:56:26;;;;;;;10.48;1.90;;;16.60;99.90;;;15.70;91.63;96653.00;5034560;28;20048;-64
2021/06/21 04:58:55;;;;;;;8.07;1.40;;;16.60;99.90;;;15.79;91.21;96651.47;5049942;28;20091;-63
2021/06/21 05:01:23;;;;;;;12.68;2.15;;;16.70;99.90;;;15.61;91.88;96665.00;5051217;28;20522;-63
2021/06/21 05:03:50;;;;;;;6.72;1.30;;;16.70;99.90;;;15.81;90.16;96657.44;5053953;28;20033;-64
2021/06/21 05:06:17;;;;;;;6.22;1.13;;;16.70;99.90;;;15.78;91.07;96670.72;5052338;28;20452;-64
2021/06/21 05:08:44;;;;;;;9.35;1.40;;;16.80;99.90;;;15.81;90.83;96678.38;5050934;28;20103;-64
2021/06/21 05:11:11;;;;;;;12.30;1.70;;;16.80;99.90;;;15.67;91.46;96669.78;5034763;28;20075;-64
2021/06/21 05:13:38;;;;;;;9.75;1.65;;;16.90;99.90;;;15.69;91.05;96670.50;5053240;28;20484;-64
2021/06/21 05:16:05;;;;;;;7.15;1.33;;;17.00;99.90;;;15.75;90.91;96665.75;5050855;28;20480;-64
2021/06/21 05:18:32;;;;;;;12.57;1.83;;;17.00;99.90;;;15.82;90.93;96693.09;5049666;28;20037;-64
2021/06/21 05:20:59;;;;;;;16.98;1.30;;;17.10;99.90;;;16.03;89.59;96693.19;5030989;28;20452;-64
2021/06/21 05:23:26;;;;;;;10.27;1.73;;;17.10;99.90;;;16.14;89.10;96671.41;5032903;28;20089;-64
2021/06/21 05:25:54;;;;;;;8.43;1.40;;;17.20;99.90;;;16.40;88.32;96679.78;5048652;28;20046;-65
2021/06/21 05:28:21;;;;;;;9.77;1.60;;;17.30;99.90;;;16.46;88.57;96676.69;5044116;28;20444;-65
2021/06/21 05:31:08;;;;;;;7.53;1.73;;;17.40;99.90;;;16.41;87.98;96684.91;5049857;28;20063;-64
2021/06/21 05:33:56;;;;;;;10.45;1.50;;;17.50;99.90;;;16.72;86.22;96688.50;5052994;28;20048;-65
2021/06/21 05:36:23;;;;;;;10.43;1.33;;;17.60;99.90;;;16.38;88.16;96700.06;5051953;28;20049;-64
2021/06/21 05:38:50;;;;;;;7.28;1.27;;;17.60;99.90;;;16.53;87.21;96701.44;5050246;28;20479;-65
2021/06/21 05:41:17;;;;;;;8.18;1.40;;;17.60;99.90;;;16.46;87.23;96713.34;5041098;28;20112;-65
2021/06/21 05:43:44;;;;;;;12.85;1.58;;;17.60;99.90;;;16.64;86.73;96693.53;5040427;28;20159;-65
2021/06/21 05:46:11;;;;;;;8.25;1.30;;;17.50;99.90;;;16.67;86.99;96680.22;5024375;28;20106;-65
2021/06/21 05:48:38;;;;;;;10.82;1.75;;;17.50;99.90;;;16.43;87.64;96701.34;5040787;28;20095;-64
2021/06/21 05:51:05;;;;;;;7.55;1.58;;;17.50;99.90;;;16.24;87.89;96698.53;5038955;28;20150;-65
2021/06/21 05:53:32;;;;;;;7.13;1.38;;;17.40;99.90;;;16.24;87.50;96696.75;5023157;28;20060;-63
2021/06/21 05:55:59;;;;;;;8.95;1.15;;;17.40;99.90;;;16.35;87.52;96716.00;5029291;28;20077;-64
2021/06/21 05:58:27;;;;;;;8.07;1.50;;;17.40;99.90;;;16.15;87.38;96702.72;5044785;28;20090;-65
2021/06/21 06:00:54;;;;;;;13.52;1.55;;;17.40;99.90;;;16.20;88.02;96691.88;5043056;28;20087;-65
2021/06/21 06:03:21;;;;;;;14.32;1.52;;;17.30;99.90;;;16.18;87.53;96702.47;5019812;28;20051;-64
2021/06/21 06:05:48;;;;;;;7.10;1.45;;;17.30;99.90;;;16.03;88.54;96696.66;5045299;28;20045;-62
2021/06/21 06:08:15;;;;;;;6.05;1.27;;;17.40;99.90;;;16.21;88.65;96704.00;5042872;28;20127;-63
2021/06/21 06:10:42;;;;;;;6.53;1.30;;;17.30;99.90;;;16.24;87.57;96707.22;5021321;28;20107;-64
2021/06/21 06:13:10;;;;;;;9.95;1.65;;;17.40;99.90;;;16.36;86.70;96702.78;5045719;28;20132;-64
2021/06/21 06:15:40;;;;;;;7.88;1.70;;;17.50;99.90;;;16.60;86.00;96691.28;5042615;28;20475;-64
2021/06/21 06:18:07;;;;;;;12.25;1.48;;;17.70;99.90;;;16.63;85.91;96689.25;5044615;28;20073;-64
2021/06/21 06:20:34;;;;;;;10.25;1.48;;;17.80;99.90;;;16.60;86.65;96686.03;5043324;28;20091;-64
2021/06/21 06:23:03;;;;;;;8.48;1.35;;;17.80;99.90;;;16.30;87.59;96691.00;5020995;28;20091;-64
2021/06/21 06:25:32;;;;;;;9.68;1.33;;;17.80;99.90;;;16.37;87.97;96693.16;5042778;28;20044;-63
2021/06/21 06:27:59;;;;;;;8.00;1.80;;;17.60;99.90;;;16.56;86.38;96698.59;5024485;28;20045;-63
2021/06/21 06:30:26;;;;;;;7.10;1.40;;;17.60;99.90;;;16.37;86.56;96696.59;5023065;28;20048;-64
2021/06/21 06:32:53;;;;;;;8.48;2.03;;;17.60;99.90;;;16.38;87.12;96681.72;5041029;28;20049;-64
2021/06/21 06:35:21;;;;;;;5.25;1.20;;;17.50;99.90;;;16.48;86.58;96711.44;5022810;28;20064;-64
2021/06/21 06:37:49;;;;;;;9.20;1.92;;;17.50;99.90;;;16.38;86.71;96715.78;5026107;28;20049;-63
2021/06/21 06:40:17;;;;;;;7.32;1.70;;;17.40;99.90;;;16.47;87.40;96710.63;5042455;28;20055;-63
2021/06/21 06:42:45;;;;;;;6.60;1.83;;;17.40;99.90;;;16.58;85.85;96704.53;5039392;28;20166;-64
2021/06/21 06:45:33;;;;;;;10.27;2.15;;;17.40;99.90;;;16.32;86.94;96722.31;5031615;28;20044;-64
2021/06/21 06:48:20;;;;;;;15.45;1.80;;;17.40;99.90;;;16.60;86.52;96717.50;5026541;28;20420;-64
2021/06/21 06:51:08;;;;;;;9.30;2.30;;;17.60;99.90;;;16.70;85.72;96718.41;5042371;28;20421;-63
2021/06/21 06:54:06;;;;;;;4.45;1.42;;;17.70;99.90;;;16.80;86.05;96716.75;5042465;28;20052;-64
2021/06/21 06:57:04;;;;;;;10.35;1.75;;;17.90;99.90;;;16.86;84.56;96731.16;5040845;28;20048;-64
2021/06/21 06:59:51;;;;;;;5.85;1.52;;;18.00;99.90;;;17.05;83.97;96712.09;5038332;28;20056;-65
2021/06/21 07:02:43;;;;;;;8.65;1.40;;;18.00;99.90;;;16.96;83.40;96734.66;5042344;28;20057;-63
2021/06/21 07:05:20;;;;;;;6.53;1.17;;;18.20;99.90;;;17.01;83.01;96724.63;5041778;28;20536;-63
2021/06/21 07:07:48;;;;;;;4.78;1.58;;;18.40;99.90;;;17.12;82.20;96734.25;5026030;28;20041;-63
2021/06/21 07:10:15;;;;;;;5.97;1.30;;;18.40;99.90;;;17.15;81.36;96728.72;5020591;28;20056;-65
2021/06/21 07:12:42;;;;;;;6.82;1.30;;;18.30;99.90;;;16.96;82.74;96736.47;5042621;28;20060;-65
2021/06/21 07:15:10;;;;;;;5.80;1.00;;;18.30;99.90;;;17.17;82.46;96734.69;5043350;28;20048;-65
2021/06/21 07:17:37;;;;;;;4.80;1.35;;;18.40;99.90;;;16.99;82.94;96731.81;5043218;28;20532;-65
2021/06/21 07:20:05;;;;;;;10.43;1.38;;;18.40;99.90;;;17.25;81.60;96747.19;5043052;28;20036;-65
2021/06/21 07:22:32;;;;;;;7.68;1.25;;;18.50;99.90;;;17.19;81.84;96743.25;5043069;28;20041;-65
2021/06/21 07:24:59;;;;;;;9.55;1.52;;;18.60;99.90;;;17.25;81.99;96734.06;5023866;28;20049;-64
2021/06/21 07:27:26;;;;;;;7.40;1.40;;;18.60;99.90;;;17.43;81.23;96735.16;5041545;28;20110;-64
2021/06/21 07:29:53;;;;;;;8.63;1.02;;;18.60;99.90;;;17.78;80.79;96731.34;5024816;28;20102;-64
2021/06/21 07:32:24;;;;;;;6.60;1.20;;;18.80;99.90;;;17.84;79.70;96740.53;5042517;28;20045;-64
2021/06/21 07:34:52;;;;;;;10.40;1.67;;;18.90;99.90;;;17.50;79.88;96752.03;5042235;28;20107;-65
2021/06/21 07:37:19;;;;;;;9.20;1.30;;;18.90;99.90;;;17.63;80.64;96743.97;5041122;28;20061;-64
2021/06/21 07:39:46;;;;;;;5.72;1.30;;;18.90;99.90;;;17.52;80.04;96736.19;5023650;28;20130;-64
2021/06/21 07:42:13;;;;;;;6.55;1.48;;;19.00;99.90;;;17.43;81.04;96745.66;5042276;28;20045;-64
2021/06/21 07:44:40;;;;;;;8.15;1.35;;;19.10;99.90;;;17.64;80.23;96743.00;5040486;28;20048;-65
2021/06/21 07:47:07;;;;;;;7.13;1.70;;;18.90;99.90;;;17.67;80.50;96757.66;5040748;28;20570;-64
2021/06/21 07:49:34;;;;;;;10.50;1.45;;;19.00;99.90;;;17.66;80.30;96745.50;5038567;28;20131;-65
2021/06/21 07:52:01;;;;;;;4.07;1.23;;;19.20;99.90;;;17.78;79.27;96758.41;5040760;28;20174;-62
2021/06/21 07:54:28;;;;;;;5.78;1.13;;;19.20;99.90;;;18.06;78.96;96747.38;5042505;28;20041;-64
2021/06/21 07:56:55;;;;;;;6.03;1.00;;;19.20;99.90;;;17.94;78.30;96754.50;5022377;28;20040;-64
2021/06/21 07:59:23;;;;;;;5.10;1.00;;;19.10;99.90;;;17.92;78.16;96754.63;5020508;28;20136;-65
2021/06/21 08:01:50;;;;;;;6.40;1.02;;;19.10;99.90;;;17.87;77.73;96769.13;5025789;28;20155;-64
2021/06/21 08:04:17;;;;;;;7.20;1.10;;;19.00;99.90;;;17.93;78.37;96769.44;5042392;28;20452;-64
2021/06/21 08:06:44;;;;;;;9.68;1.63;;;19.10;99.90;;;17.80;78.96;96771.41;5038683;28;20590;-64
2021/06/21 08:09:10;;;;;;;4.75;0.75;;;19.30;99.90;;;18.40;77.11;96768.91;5043625;28;20562;-64
2021/06/21 08:11:38;;;;;;;6.20;1.00;;;19.50;99.90;;;18.89;76.13;96754.13;5043702;28;20091;-64
2021/06/21 08:14:05;;;;;;;5.05;1.02;;;19.80;99.90;;;18.75;74.21;96757.94;5039320;28;20614;-64
2021/06/21 08:16:32;;;;;;;2.47;0.73;;;20.10;99.90;;;19.10;73.41;96745.25;5041272;28;20210;-64
2021/06/21 08:19:00;;;;;;;5.00;1.00;;;20.20;99.90;;;19.28;72.39;96763.81;5040640;28;20390;-64
2021/06/21 08:21:28;;;;;;;8.15;1.20;;;20.20;99.90;;;18.77;74.89;96763.94;5039431;28;20369;-64
2021/06/21 08:23:56;;;;;;;5.90;1.13;;;20.30;99.90;;;18.44;75.26;96780.00;5040380;28;20064;-64
2021/06/21 08:26:23;;;;;;;6.60;1.00;;;20.30;99.90;;;18.42;76.24;96771.41;5039501;28;20049;-64
2021/06/21 08:28:50;;;;;;;7.07;1.45;;;20.20;99.90;;;18.72;74.47;96766.09;5025087;28;20041;-64
2021/06/21 08:31:17;;;;;;;5.78;1.17;;;20.10;99.90;;;18.94;74.30;96774.75;5025659;28;20059;-64
2021/06/21 08:33:44;;;;;;;4.72;1.10;;;20.10;99.90;;;18.70;74.18;96778.56;5040213;28;20041;-64
2021/06/21 08:36:11;;;;;;;6.70;1.10;;;20.30;99.90;;;19.22;72.63;96775.72;5041618;28;20040;-64
2021/06/21 08:38:38;;;;;;;11.75;1.13;;;20.40;99.90;;;18.73;72.17;96786.16;5039738;28;20482;-64
2021/06/21 08:41:07;;;;;;;4.72;0.88;;;20.40;99.90;;;19.09;71.74;96783.03;5040561;28;20627;-64
2021/06/21 08:43:34;;;;;;;6.38;1.30;;;20.50;99.90;;;18.99;71.89;96785.69;5039652;28;20578;-65
2021/06/21 08:46:02;;;;;;;7.70;1.20;;;20.60;99.90;;;18.97;71.46;96812.09;5040071;28;20363;-65
2021/06/21 08:48:31;;;;;;;7.40;1.33;;;20.40;99.90;;;19.04;71.26;96796.59;5039403;28;20045;-64
2021/06/21 08:51:02;;;;;;;7.45;1.52;;;20.50;99.90;;;19.01;71.44;96796.88;5029535;28;20045;-64
2021/06/21 08:53:29;;;;;;;8.43;1.70;;;20.60;99.90;;;19.40;72.17;96776.66;5040415;28;20276;-65
2021/06/21 08:55:56;;;;;;;5.35;1.25;;;20.70;99.90;;;18.93;71.75;96799.34;5039705;28;20049;-65
2021/06/21 08:58:23;;;;;;;8.63;1.52;;;20.70;99.90;;;18.73;72.48;96798.50;5021251;28;20052;-64
2021/06/21 09:00:50;;;;;;;6.07;1.42;;;20.50;99.90;;;18.74;72.87;96797.50;5037938;28;20102;-64
2021/06/21 09:03:17;;;;;;;7.60;1.20;;;20.30;99.90;;;18.61;72.90;96797.78;5040972;28;20033;-65
2021/06/21 09:05:45;;;;;;;8.07;1.75;;;20.30;99.90;;;19.12;73.61;96803.81;5034778;28;20052;-66
2021/06/21 09:08:12;;;;;;;7.78;1.55;;;20.30;99.90;;;19.58;71.37;96786.50;5032974;28;20041;-66
2021/06/21 09:10:40;;;;;;;7.22;1.40;;;20.40;99.90;;;19.59;69.98;96788.13;5047595;28;20048;-66
2021/06/21 09:13:18;;;;;;;6.00;1.55;;;20.70;99.90;;;19.86;68.90;96797.97;5014214;28;20514;-66
2021/06/21 09:15:54;;;;;;;7.18;1.40;;;20.80;99.90;;;19.60;69.01;96808.25;5049062;28;20382;-64
2021/06/21 09:18:42;;;;;;;7.00;1.60;;;21.10;99.90;;;19.98;67.70;96807.38;5029066;28;20045;-64
2021/06/21 09:21:32;;;;;;;7.07;1.10;;;21.50;99.90;;;22.00;62.35;96801.06;5029583;28;20584;-64
2021/06/21 09:24:29;;;;;;;3.20;0.90;;;22.20;99.90;;;21.86;62.89;96789.28;5048480;28;20404;-64
2021/06/21 09:27:20;;;;;;;6.35;1.10;;;22.90;99.90;;;22.32;61.43;96789.88;5049619;28;20528;-64
2021/06/21 09:30:12;;;;;;;5.88;1.15;;;23.20;99.90;;;21.93;59.96;96814.91;5046226;28;20116;-64
2021/06/21 09:33:01;;;;;;;4.82;1.13;;;23.30;99.90;;;21.95;62.32;96806.00;5051940;28;20076;-64
2021/06/21 09:35:48;;;;;;;7.93;1.27;;;23.30;99.90;;;20.48;65.08;96796.50;5044973;28;20083;-64
2021/06/21 09:38:21;;;;;;;5.32;1.33;;;23.20;99.90;;;20.41;65.29;96820.94;5052992;28;20056;-64
2021/06/21 09:40:50;;;;;;;5.35;1.10;;;22.50;99.90;;;20.75;64.39;96820.41;5053830;28;20446;-64
2021/06/21 09:43:17;;;;;;;6.80;1.00;;;22.50;99.90;;;20.56;65.62;96805.50;5052180;28;20037;-64
2021/06/21 09:46:20;;;;;;;5.88;1.00;;;22.50;99.90;;;20.89;63.84;96825.16;5068829;28;20036;-64
2021/06/21 09:48:53;;;;;;;5.80;1.17;;;22.40;99.90;;;20.71;63.01;96830.44;4971334;28;20046;-64
2021/06/21 09:51:38;;;;;;;3.25;0.73;;;22.50;99.90;;;21.38;62.46;96814.28;5016611;28;20053;-64
2021/06/21 09:54:14;;;;;;;6.05;1.00;;;22.50;99.90;;;20.22;63.83;96825.31;5053686;28;20041;-64
2021/06/21 09:56:49;;;;;;;5.33;1.03;;;22.30;99.90;;;20.56;62.82;96835.34;5035278;28;20497;-65
2021/06/21 09:59:33;;;;;;;2.08;0.82;;;22.00;99.90;;;22.50;60.41;96824.19;5055582;28;20359;-64
2021/06/21 10:02:11;;;;;;;5.97;1.00;;;22.50;99.90;;;21.48;59.42;96836.19;5039833;28;20033;-64
2021/06/21 10:04:41;;;;;;;4.15;0.93;;;22.60;99.90;;;21.15;61.51;96841.13;5039522;28;20076;-64
2021/06/21 10:07:36;;;;;;;4.50;0.88;;;22.60;99.90;;;21.02;60.67;96827.47;5057941;28;20091;-64
2021/06/21 10:10:23;;;;;;;5.10;1.00;;;22.20;99.90;;;20.88;62.13;96855.19;5053110;28;20072;-64
2021/06/21 10:12:51;;;;;;;7.72;0.85;;;22.50;99.90;;;20.76;61.51;96870.38;5035208;28;20049;-64
2021/06/21 10:15:18;;;;;;;3.13;0.93;;;22.50;99.90;;;20.70;62.01;96870.94;5061587;28;20056;-64
2021/06/21 10:17:46;;;;;;;6.45;1.00;;;22.40;99.90;;;20.19;63.84;96856.41;5033363;28;20107;-64
2021/06/21 10:20:13;;;;;;;5.30;1.98;;;22.30;99.90;;;21.20;62.31;96849.41;5030637;28;20078;-64
2021/06/21 10:22:42;;;;;;;4.57;1.00;;;22.60;99.90;;;20.75;63.13;96863.41;5045646;28;20114;-64
2021/06/21 10:25:11;;;;;;;2.55;0.98;;;23.00;99.90;;;21.54;62.51;96859.34;5035096;28;20045;-64
2021/06/21 10:28:01;;;;;;;5.13;1.10;;;23.10;99.90;;;21.73;60.85;96874.19;5050798;28;20048;-64
2021/06/21 10:30:49;;;;;;;4.05;1.00;;;23.40;99.90;;;22.56;60.06;96852.66;5057504;28;20060;-64
2021/06/21 10:33:36;;;;;;;5.28;1.00;;;23.90;99.90;;;21.91;59.34;96858.31;5036312;28;20045;-64
2021/06/21 10:36:40;;;;;;;7.00;0.90;;;24.10;99.90;;;22.92;57.93;96863.03;5043118;28;20045;-64
2021/06/21 10:39:30;;;;;;;6.97;1.15;;;23.90;99.90;;;22.42;57.47;96858.50;5051595;28;20099;-64